createdAt,value
2023-05-05T00:01:16.074Z,101586.28
2023-05-05T00:03:44.809Z,101577.47
2023-05-05T00:06:14.994Z,101573.97
2023-05-05T00:08:43.511Z,101571.28
2023-05-05T00:11:12.088Z,101574.75
2023-05-05T00:13:40.772Z,101567.72
2023-05-05T00:16:09.737Z,101572.09
2023-05-05T00:18:38.206Z,101569.44
2023-05-05T00:21:06.967Z,101558.03
2023-05-05T00:23:36.938Z,101554.53
2023-05-05T00:26:05.429Z,101551.88
2023-05-05T00:28:33.930Z,101548.41
2023-05-05T00:31:02.456Z,101553.66
2023-05-05T00:33:30.846Z,101546.69
2023-05-05T00:35:59.452Z,101537.91
2023-05-05T00:38:28.096Z,101540.53
2023-05-05T00:40:58.778Z,101539.63
2023-05-05T00:43:28.108Z,101537.88
2023-05-05T00:46:05.682Z,101530.84
2023-05-05T00:48:34.595Z,101536.09
2023-05-05T00:51:03.048Z,101533.44
2023-05-05T00:53:31.752Z,101526.41
2023-05-05T00:56:02.116Z,101523.75
2023-05-05T00:58:31.796Z,101519.38
2023-05-05T01:01:00.138Z,101519.34
2023-05-05T01:03:28.726Z,101517.59
2023-05-05T01:06:18.809Z,101509.69
2023-05-05T01:09:04.457Z,101511.38
2023-05-05T01:11:44.092Z,101512.25
2023-05-05T01:14:17.290Z,101493.84
2023-05-05T01:16:58.587Z,101499.09
2023-05-05T01:19:56.589Z,101501.72
2023-05-05T01:22:29.630Z,101500.84
2023-05-05T01:25:39.576Z,101493.84
2023-05-05T01:28:28.204Z,101476.31
2023-05-05T01:31:25.001Z,101467.56
2023-05-05T01:34:01.709Z,101481.56
2023-05-05T01:36:38.471Z,101485.97
2023-05-05T01:39:10.122Z,101477.25
2023-05-05T01:41:44.475Z,101484.31
2023-05-05T01:44:14.915Z,101477.31
2023-05-05T01:46:43.310Z,101477.38
2023-05-05T01:49:14.626Z,101470.38
2023-05-05T01:51:43.910Z,101471.31
2023-05-05T01:54:12.628Z,101477.41
2023-05-05T01:56:42.444Z,101466.06
2023-05-05T01:59:12.726Z,101464.28
2023-05-05T02:01:44.728Z,101462.53
2023-05-05T02:04:16.493Z,101459.00
2023-05-05T02:06:47.598Z,101467.78
2023-05-05T02:09:16.572Z,101459.91
2023-05-05T02:11:45.292Z,101459.03
2023-05-05T02:14:15.053Z,101458.16
2023-05-05T02:16:44.583Z,101459.03
2023-05-05T02:19:16.338Z,101461.69
2023-05-05T02:21:45.046Z,101455.53
2023-05-05T02:24:13.560Z,101454.66
2023-05-05T02:26:45.942Z,101452.03
2023-05-05T02:29:19.702Z,101452.91
2023-05-05T02:31:52.535Z,101465.19
2023-05-05T02:34:27.747Z,101455.56
2023-05-05T02:36:59.908Z,101460.84
2023-05-05T02:39:34.378Z,101450.31
2023-05-05T02:42:05.495Z,101453.84
2023-05-05T02:44:36.072Z,101442.47
2023-05-05T02:47:05.221Z,101452.09
2023-05-05T02:49:35.086Z,101462.63
2023-05-05T02:52:03.514Z,101441.59
2023-05-05T02:54:33.946Z,101462.63
2023-05-05T02:57:02.866Z,101464.38
2023-05-05T02:59:39.632Z,101452.13
2023-05-05T03:02:18.644Z,101448.63
2023-05-05T03:04:52.952Z,101448.63
2023-05-05T03:07:29.008Z,101444.25
2023-05-05T03:10:05.556Z,101433.75
2023-05-05T03:12:40.041Z,101426.72
2023-05-05T03:15:11.216Z,101418.81
2023-05-05T03:17:42.272Z,101436.31
2023-05-05T03:20:15.281Z,101444.22
2023-05-05T03:22:43.637Z,101437.22
2023-05-05T03:25:12.436Z,101445.94
2023-05-05T03:27:40.786Z,101443.28
2023-05-05T03:30:11.017Z,101446.75
2023-05-05T03:32:39.615Z,101459.88
2023-05-05T03:35:08.884Z,101455.44
2023-05-05T03:37:38.898Z,101447.53
2023-05-05T03:40:09.527Z,101455.38
2023-05-05T03:42:38.106Z,101449.22
2023-05-05T03:45:07.886Z,101450.94
2023-05-05T03:47:36.703Z,101450.94
2023-05-05T03:50:05.725Z,101458.78
2023-05-05T03:52:38.277Z,101457.00
2023-05-05T03:55:09.401Z,101459.66
2023-05-05T03:57:37.832Z,101468.41
2023-05-05T04:00:11.950Z,101472.84
2023-05-05T04:02:40.342Z,101470.25
2023-05-05T04:05:09.390Z,101470.31
2023-05-05T04:07:38.526Z,101479.13
2023-05-05T04:10:11.076Z,101490.53
2023-05-05T04:12:39.534Z,101494.97
2023-05-05T04:15:11.888Z,101499.38
2023-05-05T04:17:40.230Z,101509.94
2023-05-05T04:20:09.953Z,101513.50
2023-05-05T04:22:38.997Z,101528.44
2023-05-05T04:25:09.495Z,101524.97
2023-05-05T04:27:38.076Z,101532.00
2023-05-05T04:30:09.727Z,101505.72
2023-05-05T04:32:38.441Z,101506.63
2023-05-05T04:35:08.583Z,101527.66
2023-05-05T04:37:37.133Z,101544.31
2023-05-05T04:40:08.539Z,101546.97
2023-05-05T04:42:38.896Z,101539.97
2023-05-05T04:45:09.728Z,101512.78
2023-05-05T04:47:41.699Z,101535.56
2023-05-05T04:50:12.126Z,101548.72
2023-05-05T04:52:41.004Z,101516.28
2023-05-05T04:55:11.787Z,101494.34
2023-05-05T04:57:41.561Z,101518.88
2023-05-05T05:00:11.791Z,101532.03
2023-05-05T05:02:40.257Z,101529.38
2023-05-05T05:05:10.614Z,101528.50
2023-05-05T05:07:40.093Z,101541.69
2023-05-05T05:10:21.629Z,101534.66
2023-05-05T05:12:51.332Z,101534.63
2023-05-05T05:15:20.116Z,101524.13
2023-05-05T05:17:48.930Z,101528.50
2023-05-05T05:20:17.329Z,101528.47
2023-05-05T05:22:46.410Z,101530.22
2023-05-05T05:25:15.081Z,101528.47
2023-05-05T05:27:43.543Z,101526.72
2023-05-05T05:30:14.738Z,101547.72
2023-05-05T05:32:44.042Z,101552.09
2023-05-05T05:35:12.434Z,101531.88
2023-05-05T05:37:41.755Z,101529.22
2023-05-05T05:40:11.789Z,101517.78
2023-05-05T05:42:42.274Z,101516.00
2023-05-05T05:45:12.938Z,101546.69
2023-05-05T05:47:42.257Z,101561.59
2023-05-05T05:50:11.540Z,101549.34
2023-05-05T05:52:40.106Z,101557.25
2023-05-05T05:55:10.410Z,101569.53
2023-05-05T05:57:38.771Z,101565.16
2023-05-05T06:00:09.284Z,101569.63
2023-05-05T06:02:39.806Z,101571.41
2023-05-05T06:05:08.928Z,101581.13
2023-05-05T06:07:37.388Z,101585.56
2023-05-05T06:10:22.661Z,101591.81
2023-05-05T06:12:55.279Z,101580.47
2023-05-05T06:15:23.626Z,101580.50
2023-05-05T06:17:53.486Z,101572.59
2023-05-05T06:20:22.286Z,101585.78
2023-05-05T06:22:50.886Z,101578.75
2023-05-05T06:25:19.597Z,101590.19
2023-05-05T06:27:48.508Z,101600.72
2023-05-05T06:30:17.918Z,101594.59
2023-05-05T06:32:46.517Z,101595.44
2023-05-05T06:35:16.969Z,101593.69
2023-05-05T06:37:45.990Z,101598.97
2023-05-05T06:40:14.655Z,101598.97
2023-05-05T06:42:43.051Z,101595.44
2023-05-05T06:45:12.674Z,101590.19
2023-05-05T06:47:41.063Z,101601.63
2023-05-05T06:50:11.165Z,101593.69
2023-05-05T06:52:41.289Z,101604.25
2023-05-05T06:55:10.823Z,101603.34
2023-05-05T06:57:39.152Z,101603.38
2023-05-05T07:00:11.414Z,101602.44
2023-05-05T07:02:40.252Z,101608.59
2023-05-05T07:05:09.061Z,101601.50
2023-05-05T07:07:38.330Z,101620.88
2023-05-05T07:10:10.098Z,101616.44
2023-05-05T07:12:38.665Z,101627.84
2023-05-05T07:15:23.524Z,101626.09
2023-05-05T07:17:56.016Z,101619.94
2023-05-05T07:20:25.215Z,101627.84
2023-05-05T07:22:53.769Z,101626.97
2023-05-05T07:25:23.767Z,101631.41
2023-05-05T07:27:52.468Z,101634.94
2023-05-05T07:30:21.472Z,101636.69
2023-05-05T07:32:51.199Z,101632.31
2023-05-05T07:35:20.075Z,101639.34
2023-05-05T07:37:48.726Z,101649.88
2023-05-05T07:40:17.291Z,101634.06
2023-05-05T07:42:48.420Z,101635.81
2023-05-05T07:45:16.771Z,101625.19
2023-05-05T07:47:45.694Z,101623.34
2023-05-05T07:50:14.181Z,101621.56
2023-05-05T07:52:49.893Z,101622.41
2023-05-05T07:55:22.558Z,101624.16
2023-05-05T07:57:52.492Z,101620.59
2023-05-05T08:00:25.800Z,101630.28
2023-05-05T08:02:54.364Z,101637.25
2023-05-05T08:05:22.911Z,101630.09
2023-05-05T08:07:51.217Z,101629.09
2023-05-05T08:10:20.047Z,101625.41
2023-05-05T08:12:48.516Z,101634.06
2023-05-05T08:15:18.603Z,101633.03
2023-05-05T08:17:49.167Z,101633.78
2023-05-05T08:20:21.669Z,101630.09
2023-05-05T08:22:51.702Z,101631.78
2023-05-05T08:25:21.267Z,101626.31
2023-05-05T08:27:50.005Z,101626.94
2023-05-05T08:30:21.467Z,101620.53
2023-05-05T08:32:50.159Z,101618.53
2023-05-05T08:35:20.409Z,101628.09
2023-05-05T08:37:48.721Z,101614.84
2023-05-05T08:40:17.052Z,101619.94
2023-05-05T08:42:46.417Z,101617.03
2023-05-05T08:45:14.865Z,101615.94
2023-05-05T08:47:44.857Z,101625.38
2023-05-05T08:50:14.120Z,101628.78
2023-05-05T08:52:45.164Z,101625.91
2023-05-05T08:55:26.214Z,101626.59
2023-05-05T08:57:57.970Z,101626.38
2023-05-05T09:00:27.825Z,101625.25
2023-05-05T09:02:59.634Z,101621.38
2023-05-05T09:05:29.130Z,101620.19
2023-05-05T09:07:57.737Z,101618.84
2023-05-05T09:10:30.528Z,101611.41
2023-05-05T09:12:59.869Z,101618.16
2023-05-05T09:15:29.060Z,101618.84
2023-05-05T09:17:59.440Z,101620.56
2023-05-05T09:20:36.090Z,101622.88
2023-05-05T09:23:12.022Z,101626.16
2023-05-05T09:25:41.246Z,101624.09
2023-05-05T09:28:11.885Z,101621.09
2023-05-05T09:30:41.953Z,101615.38
2023-05-05T09:33:12.362Z,101621.28
2023-05-05T09:35:53.471Z,101617.56
2023-05-05T09:38:23.684Z,101621.59
2023-05-05T09:40:57.259Z,101618.00
2023-05-05T09:43:26.339Z,101619.81
2023-05-05T09:46:08.345Z,101623.00
2023-05-05T09:48:42.776Z,101626.97
2023-05-05T09:51:11.349Z,101632.59
2023-05-05T09:53:42.378Z,101623.06
2023-05-05T09:56:11.439Z,101621.53
2023-05-05T09:58:40.405Z,101621.84
2023-05-05T10:01:24.366Z,101613.38
2023-05-05T10:03:54.907Z,101619.00
2023-05-05T10:06:42.786Z,101615.31
2023-05-05T10:09:11.361Z,101622.50
2023-05-05T10:11:42.552Z,101608.44
2023-05-05T10:14:15.794Z,101612.59
2023-05-05T10:16:50.943Z,101614.13
2023-05-05T10:19:25.203Z,101618.69
2023-05-05T10:22:09.076Z,101603.72
2023-05-05T10:24:45.655Z,101605.56
2023-05-05T10:27:17.608Z,101604.81
2023-05-05T10:29:53.944Z,101596.56
2023-05-05T10:32:51.992Z,101595.88
2023-05-05T10:35:25.009Z,101602.31
2023-05-05T10:37:55.690Z,101604.78
2023-05-05T10:40:25.133Z,101599.25
2023-05-05T10:42:56.111Z,101594.78
2023-05-05T10:45:24.971Z,101587.66
2023-05-05T10:47:55.532Z,101588.72
2023-05-05T10:50:34.781Z,101587.00
2023-05-05T10:53:20.163Z,101594.94
2023-05-05T10:55:57.989Z,101584.97
2023-05-05T10:58:51.020Z,101583.81
2023-05-05T11:01:33.708Z,101573.44
2023-05-05T11:04:21.985Z,101568.72
2023-05-05T11:10:03.141Z,101574.53
2023-05-05T11:12:32.818Z,101566.56
2023-05-05T11:15:38.714Z,101563.06
2023-05-05T11:18:08.613Z,101567.50
2023-05-05T11:21:18.779Z,101556.44
2023-05-05T11:23:50.248Z,101562.19
2023-05-05T11:26:51.136Z,101553.75
2023-05-05T11:29:19.790Z,101556.59
2023-05-05T11:32:15.690Z,101556.19
2023-05-05T11:34:51.194Z,101556.28
2023-05-05T11:37:23.967Z,101551.31
2023-05-05T11:40:04.776Z,101549.63
2023-05-05T11:42:34.727Z,101549.47
2023-05-05T11:45:23.364Z,101548.28
2023-05-05T11:47:52.413Z,101546.75
2023-05-05T11:50:25.111Z,101543.66
2023-05-05T11:52:53.511Z,101540.13
2023-05-05T11:55:25.065Z,101537.19
2023-05-05T11:57:55.272Z,101534.47
2023-05-05T12:00:35.124Z,101534.06
2023-05-05T12:03:03.660Z,101533.88
2023-05-05T12:05:35.751Z,101532.50
2023-05-05T12:08:05.459Z,101533.38
2023-05-05T12:10:34.019Z,101532.72
2023-05-05T12:13:03.764Z,101529.41
2023-05-05T12:15:33.840Z,101533.91
2023-05-05T12:18:03.215Z,101514.97
2023-05-05T12:20:35.155Z,101521.97
2023-05-05T12:23:04.835Z,101519.84
2023-05-05T12:25:38.368Z,101509.63
2023-05-05T12:28:09.520Z,101508.06
2023-05-05T12:30:38.322Z,101505.34
2023-05-05T12:33:08.634Z,101498.00
2023-05-05T12:35:37.839Z,101493.66
2023-05-05T12:38:06.183Z,101491.66
2023-05-05T12:40:48.475Z,101490.97
2023-05-05T12:43:31.255Z,101498.84
2023-05-05T12:46:09.028Z,101495.31
2023-05-05T12:48:39.166Z,101490.13
2023-05-05T12:51:20.185Z,101485.69
2023-05-05T12:53:50.507Z,101482.16
2023-05-05T12:56:37.577Z,101480.75
2023-05-05T12:59:10.393Z,101486.09
2023-05-05T13:01:51.639Z,101479.09
2023-05-05T13:04:23.465Z,101480.84
2023-05-05T13:07:11.791Z,101478.50
2023-05-05T13:09:41.042Z,101482.84
2023-05-05T13:12:12.188Z,101497.66
2023-05-05T13:14:42.953Z,101502.25
2023-05-05T13:17:11.832Z,101515.66
2023-05-05T13:19:46.033Z,101524.09
2023-05-05T13:22:15.281Z,101539.34
2023-05-05T13:25:07.289Z,101543.03
2023-05-05T13:27:35.001Z,101534.66
2023-05-05T13:30:08.531Z,101516.94
2023-05-05T13:32:36.791Z,101525.44
2023-05-05T13:35:06.304Z,101530.31
2023-05-05T13:37:35.102Z,101524.19
2023-05-05T13:40:03.600Z,101517.75
2023-05-05T13:42:33.304Z,101514.75
2023-05-05T13:45:01.657Z,101538.13
2023-05-05T13:47:31.960Z,101572.91
2023-05-05T13:50:00.849Z,101590.88
2023-05-05T13:52:31.620Z,101618.50
2023-05-05T13:55:01.964Z,101624.81
2023-05-05T13:57:30.438Z,101605.44
2023-05-05T13:59:59.976Z,101614.22
2023-05-05T14:02:33.855Z,101612.44
2023-05-05T14:05:03.382Z,101617.72
2023-05-05T14:07:39.229Z,101629.22
2023-05-05T14:10:10.548Z,101635.38
2023-05-05T14:12:45.536Z,101653.84
2023-05-05T14:15:14.291Z,101671.50
2023-05-05T14:17:45.086Z,101692.66
2023-05-05T14:20:14.288Z,101684.75
2023-05-05T14:22:43.266Z,101692.69
2023-05-05T14:25:11.806Z,101692.72
2023-05-05T14:27:40.657Z,101683.97
2023-05-05T14:30:10.736Z,101684.00
2023-05-05T14:32:42.065Z,101681.41
2023-05-05T14:35:14.346Z,101655.91
2023-05-05T14:37:43.403Z,101647.19
2023-05-05T14:40:12.339Z,101639.31
2023-05-05T14:42:41.109Z,101638.47
2023-05-05T14:45:11.267Z,101638.50
2023-05-05T14:47:41.451Z,101641.13
2023-05-05T14:50:14.273Z,101654.31
2023-05-05T14:52:44.443Z,101655.16
2023-05-05T14:55:12.903Z,101655.16
2023-05-05T14:57:41.560Z,101649.91
2023-05-05T15:00:11.992Z,101645.50
2023-05-05T15:02:41.724Z,101651.66
2023-05-05T15:05:11.920Z,101638.47
2023-05-05T15:07:40.559Z,101634.94
2023-05-05T15:10:09.926Z,101630.53
2023-05-05T15:12:38.993Z,101638.44
2023-05-05T15:15:13.475Z,101632.31
2023-05-05T15:17:42.020Z,101632.28
2023-05-05T15:20:14.305Z,101636.66
2023-05-05T15:22:42.796Z,101643.72
2023-05-05T15:25:14.861Z,101637.56
2023-05-05T15:27:43.970Z,101653.41
2023-05-05T15:30:14.269Z,101653.41
2023-05-05T15:32:43.144Z,101649.88
2023-05-05T15:35:13.292Z,101652.50
2023-05-05T15:37:42.619Z,101659.53
2023-05-05T15:40:12.640Z,101668.34
2023-05-05T15:42:41.146Z,101667.44
2023-05-05T15:45:12.528Z,101665.66
2023-05-05T15:47:40.847Z,101665.66
2023-05-05T15:50:10.616Z,101663.91
2023-05-05T15:52:40.620Z,101659.53
2023-05-05T15:55:11.014Z,101659.50
2023-05-05T15:57:40.460Z,101653.31
2023-05-05T16:00:10.375Z,101650.63
2023-05-05T16:02:39.855Z,101655.03
2023-05-05T16:05:09.462Z,101644.50
2023-05-05T16:07:40.276Z,101648.88
2023-05-05T16:10:10.741Z,101642.66
2023-05-05T16:12:39.284Z,101632.09
2023-05-05T16:15:09.386Z,101631.19
2023-05-05T16:17:38.110Z,101624.16
2023-05-05T16:20:07.871Z,101627.63
2023-05-05T16:22:37.142Z,101619.72
2023-05-05T16:25:08.778Z,101618.75
2023-05-05T16:27:37.696Z,101613.41
2023-05-05T16:30:08.617Z,101608.94
2023-05-05T16:32:39.114Z,101611.38
2023-05-05T16:35:09.383Z,101597.84
2023-05-05T16:37:38.104Z,101596.59
2023-05-05T16:40:10.122Z,101591.06
2023-05-05T16:42:38.764Z,101582.28
2023-05-05T16:45:10.072Z,101579.00
2023-05-05T16:47:38.556Z,101573.69
2023-05-05T16:50:08.628Z,101582.38
2023-05-05T16:52:36.950Z,101578.75
2023-05-05T16:55:07.780Z,101575.13
2023-05-05T16:57:36.288Z,101564.47
2023-05-05T17:00:05.353Z,101562.94
2023-05-05T17:02:33.813Z,101545.81
2023-05-05T17:05:02.190Z,101536.63
2023-05-05T17:07:30.580Z,101532.50
2023-05-05T17:09:59.266Z,101530.59
2023-05-05T17:12:29.093Z,101537.59
2023-05-05T17:14:57.709Z,101553.19
2023-05-05T17:17:26.388Z,101548.28
2023-05-05T17:19:58.470Z,101547.19
2023-05-05T17:22:27.324Z,101554.50
2023-05-05T17:24:56.213Z,101559.50
2023-05-05T17:27:25.240Z,101565.25
2023-05-05T17:29:55.178Z,101575.44
2023-05-05T17:32:23.725Z,101565.50
2023-05-05T17:34:52.424Z,101571.31
2023-05-05T17:37:22.740Z,101569.94
2023-05-05T17:39:51.439Z,101575.47
2023-05-05T17:42:22.950Z,101573.94
2023-05-05T17:44:51.476Z,101582.94
2023-05-05T17:47:22.519Z,101603.34
2023-05-05T17:49:51.508Z,101629.19
2023-05-05T17:52:20.141Z,101627.63
2023-05-05T17:54:48.810Z,101637.44
2023-05-05T17:57:18.844Z,101634.03
2023-05-05T17:59:47.231Z,101634.09
2023-05-05T18:02:15.676Z,101634.16
2023-05-05T18:04:45.880Z,101632.41
2023-05-05T18:07:15.666Z,101620.94
2023-05-05T18:09:44.714Z,101618.88
2023-05-05T18:12:13.247Z,101621.84
2023-05-05T18:14:42.606Z,101621.88
2023-05-05T18:17:10.918Z,101626.47
2023-05-05T18:19:42.907Z,101626.06
2023-05-05T18:22:12.928Z,101633.56
2023-05-05T18:24:41.275Z,101628.66
2023-05-05T18:27:09.649Z,101632.47
2023-05-05T18:29:37.992Z,101644.91
2023-05-05T18:32:07.474Z,101636.97
2023-05-05T18:34:35.933Z,101642.25
2023-05-05T18:37:04.494Z,101648.47
2023-05-05T18:39:34.371Z,101646.81
2023-05-05T18:42:03.954Z,101648.66
2023-05-05T18:44:34.845Z,101647.91
2023-05-05T18:47:03.299Z,101649.78
2023-05-05T18:49:31.838Z,101658.75
2023-05-05T18:52:00.959Z,101650.03
2023-05-05T18:54:31.009Z,101653.63
2023-05-05T18:57:01.178Z,101649.31
2023-05-05T18:59:29.869Z,101652.00
2023-05-05T19:01:59.456Z,101652.97
2023-05-05T19:04:31.750Z,101665.38
2023-05-05T19:07:00.477Z,101666.28
2023-05-05T19:09:29.010Z,101664.59
2023-05-05T19:11:57.925Z,101667.25
2023-05-05T19:14:28.577Z,101663.78
2023-05-05T19:16:59.100Z,101674.41
2023-05-05T19:19:28.144Z,101675.31
2023-05-05T19:21:56.863Z,101670.09
2023-05-05T19:24:25.440Z,101677.16
2023-05-05T19:26:56.396Z,101674.53
2023-05-05T19:29:24.983Z,101672.81
2023-05-05T19:31:55.271Z,101673.72
2023-05-05T19:34:23.822Z,101677.22
2023-05-05T19:36:52.832Z,101673.69
2023-05-05T19:39:21.663Z,101672.78
2023-05-05T19:41:50.436Z,101676.28
2023-05-05T19:44:18.906Z,101674.53
2023-05-05T19:46:47.725Z,101672.78
2023-05-05T19:49:17.556Z,101668.38
2023-05-05T19:51:50.385Z,101674.50
2023-05-05T19:54:19.492Z,101664.84
2023-05-05T19:56:48.191Z,101675.38
2023-05-05T19:59:16.756Z,101673.56
2023-05-05T20:01:45.185Z,101676.19
2023-05-05T20:04:13.630Z,101676.16
2023-05-05T20:06:43.404Z,101681.44
2023-05-05T20:09:11.853Z,101678.75
2023-05-05T20:11:40.402Z,101675.22
2023-05-05T20:14:08.868Z,101682.22
2023-05-05T20:16:37.411Z,101670.78
2023-05-05T20:19:06.222Z,101676.91
2023-05-05T20:21:36.085Z,101668.13
2023-05-05T20:24:06.927Z,101679.47
2023-05-05T20:26:35.354Z,101672.38
2023-05-05T20:29:03.840Z,101679.38
2023-05-05T20:31:32.313Z,101661.84
2023-05-05T20:34:00.764Z,101674.06
2023-05-05T20:36:29.230Z,101673.16
2023-05-05T20:38:57.980Z,101673.13
2023-05-05T20:41:29.347Z,101673.16
2023-05-05T20:43:57.987Z,101671.38
2023-05-05T20:46:26.922Z,101676.63
2023-05-05T20:48:55.450Z,101671.38
2023-05-05T20:51:24.345Z,101672.25
2023-05-05T20:53:53.798Z,101670.53
2023-05-05T20:56:22.597Z,101672.31
2023-05-05T20:58:52.906Z,101669.72
2023-05-05T21:01:21.795Z,101666.25
2023-05-05T21:03:50.558Z,101674.22
2023-05-05T21:06:20.140Z,101667.25
2023-05-05T21:08:49.306Z,101679.56
2023-05-05T21:11:17.722Z,101678.69
2023-05-05T21:13:46.191Z,101679.56
2023-05-05T21:16:15.913Z,101672.56
2023-05-05T21:18:46.750Z,101674.38
2023-05-05T21:21:15.153Z,101680.50
2023-05-05T21:23:43.556Z,101680.56
2023-05-05T21:26:11.923Z,101677.94
2023-05-05T21:28:40.284Z,101682.34
2023-05-05T21:31:21.987Z,101682.34
2023-05-05T21:33:52.823Z,101684.13
2023-05-05T21:36:21.838Z,101678.84
2023-05-05T21:38:51.455Z,101676.22
2023-05-05T21:41:19.826Z,101675.34
2023-05-05T21:43:48.432Z,101670.06
2023-05-05T21:46:17.836Z,101674.47
2023-05-05T21:48:48.411Z,101674.47
2023-05-05T21:51:18.542Z,101664.84
2023-05-05T21:53:46.960Z,101672.72
2023-05-05T21:56:15.350Z,101671.84
2023-05-05T21:58:43.853Z,101668.34
2023-05-05T22:01:13.346Z,101669.22
2023-05-05T22:03:43.769Z,101665.72
2023-05-05T22:06:12.422Z,101674.47
2023-05-05T22:08:42.346Z,101674.47
2023-05-05T22:11:10.889Z,101665.69
2023-05-05T22:13:40.916Z,101664.81
2023-05-05T22:16:10.932Z,101670.06
2023-05-05T22:18:39.422Z,101665.69
2023-05-05T22:21:08.506Z,101668.34
2023-05-05T22:23:39.087Z,101664.78
2023-05-05T22:26:09.296Z,101665.66
2023-05-05T22:28:38.622Z,101663.00
2023-05-05T22:31:07.289Z,101666.53
2023-05-05T22:33:36.225Z,101667.41
2023-05-05T22:36:05.043Z,101662.09
2023-05-05T22:38:33.447Z,101669.16
2023-05-05T22:41:02.086Z,101663.00
2023-05-05T22:43:32.168Z,101663.91
2023-05-05T22:46:01.259Z,101675.31
2023-05-05T22:48:29.570Z,101676.19
2023-05-05T22:50:58.260Z,101677.97
2023-05-05T22:53:26.881Z,101676.22
2023-05-05T22:55:55.653Z,101678.88
2023-05-05T22:58:26.753Z,101658.69
2023-05-05T23:00:56.675Z,101663.09
2023-05-05T23:03:25.709Z,101665.72
2023-05-05T23:05:54.191Z,101666.59
2023-05-05T23:08:24.706Z,101667.47
2023-05-05T23:10:54.550Z,101663.97
2023-05-05T23:13:25.887Z,101669.25
2023-05-05T23:15:55.807Z,101674.50
2023-05-05T23:18:24.419Z,101673.66
2023-05-05T23:20:53.157Z,101675.38
2023-05-05T23:23:21.929Z,101677.16
2023-05-05T23:25:51.594Z,101678.03
2023-05-05T23:28:20.674Z,101677.16
2023-05-05T23:30:49.246Z,101680.66
2023-05-05T23:33:19.610Z,101677.16
2023-05-05T23:35:48.775Z,101682.41
2023-05-05T23:38:17.314Z,101679.78
2023-05-05T23:40:45.716Z,101687.72
2023-05-05T23:43:14.219Z,101685.97
2023-05-05T23:45:42.620Z,101687.72
2023-05-05T23:48:10.987Z,101688.59
2023-05-05T23:50:41.393Z,101689.47
2023-05-05T23:53:10.671Z,101681.56
2023-05-05T23:55:39.120Z,101689.47
2023-05-05T23:58:07.543Z,101684.19
